Wetterdaten: aktuell Freitag, 17.08.2018 04:05
Datum Zeit Temp. auen Feuchte A. Luftdruck Regen Wind Richtung Richtung Sonnenschein Solar Windben
17.08.2018 04:05 21,1 C 66 % 1011,9 hPa 0,0 l/m 0,0 km/h (0 Bft) W-NW 301 0 min 0 W/m 0,0 km/h (0 Bft)
17.08.2018 04:00 21,1 C 66 % 1011,9 hPa 0,0 l/m 0,6 km/h (0 Bft) W-NW 301 0 min 0 W/m 4,8 km/h (1 Bft)
17.08.2018 03:55 21,2 C 66 % 1011,9 hPa 0,0 l/m 1,7 km/h (1 Bft) W-NW 301 0 min 0 W/m 3,2 km/h (1 Bft)
17.08.2018 03:50 21,2 C 67 % 1011,9 hPa 0,0 l/m 0,6 km/h (0 Bft) W-NW 301 0 min 0 W/m 3,2 km/h (1 Bft)
17.08.2018 03:45 21,2 C 67 % 1011,9 hPa 0,0 l/m 0,6 km/h (0 Bft) W-NW 301 0 min 0 W/m 3,2 km/h (1 Bft)
17.08.2018 03:40 21,3 C 67 % 1011,8 hPa 0,0 l/m 0,0 km/h (0 Bft) W-NW 301 0 min 0 W/m 0,0 km/h (0 Bft)
17.08.2018 03:35 21,4 C 67 % 1011,8 hPa 0,0 l/m 0,0 km/h (0 Bft) W-NW 301 0 min 0 W/m 0,0 km/h (0 Bft)
17.08.2018 03:30 21,4 C 66 % 1011,8 hPa 0,0 l/m 0,0 km/h (0 Bft) W-NW 301 0 min 0 W/m 0,0 km/h (0 Bft)
17.08.2018 03:25 21,4 C 66 % 1011,8 hPa 0,0 l/m 0,0 km/h (0 Bft) W-NW 301 0 min 0 W/m 0,0 km/h (0 Bft)
17.08.2018 03:20 21,5 C 66 % 1011,8 hPa 0,0 l/m 0,4 km/h (0 Bft) W-NW 301 0 min 0 W/m 3,2 km/h (1 Bft)
17.08.2018 03:15 21,5 C 66 % 1011,8 hPa 0,0 l/m 0,3 km/h (0 Bft) W-NW 300 0 min 0 W/m 3,2 km/h (1 Bft)
17.08.2018 03:10 21,5 C 65 % 1011,8 hPa 0,0 l/m 0,0 km/h (0 Bft) W-NW 300 0 min 0 W/m 0,0 km/h (0 Bft)
17.08.2018 03:05 21,6 C 65 % 1011,8 hPa 0,0 l/m 0,0 km/h (0 Bft) W-NW 300 0 min 0 W/m 0,0 km/h (0 Bft)
17.08.2018 03:00 21,6 C 65 % 1011,8 hPa 0,0 l/m 0,0 km/h (0 Bft) W-NW 300 0 min 0 W/m 0,0 km/h (0 Bft)
17.08.2018 02:55 21,7 C 64 % 1011,8 hPa 0,0 l/m 0,5 km/h (0 Bft) W-NW 300 0 min 0 W/m 4,8 km/h (1 Bft)
17.08.2018 02:50 21,8 C 64 % 1011,8 hPa 0,0 l/m 0,1 km/h (0 Bft) W-NW 300 0 min 0 W/m 1,6 km/h (1 Bft)
17.08.2018 02:45 21,9 C 63 % 1011,8 hPa 0,0 l/m 1,8 km/h (1 Bft) W-NW 300 0 min 0 W/m 4,8 km/h (1 Bft)
17.08.2018 02:40 21,9 C 63 % 1011,9 hPa 0,0 l/m 4,1 km/h (1 Bft) W-NW 300 0 min 0 W/m 8,0 km/h (2 Bft)
17.08.2018 02:35 21,9 C 62 % 1011,9 hPa 0,0 l/m 4,6 km/h (1 Bft) NO 56 0 min 0 W/m 6,4 km/h (2 Bft)
17.08.2018 02:30 21,9 C 63 % 1011,9 hPa 0,0 l/m 7,3 km/h (2 Bft) NO 56 0 min 0 W/m 9,7 km/h (2 Bft)
17.08.2018 02:25 22,1 C 62 % 1012,0 hPa 0,0 l/m 3,8 km/h (1 Bft) NO 49 0 min 0 W/m 8,0 km/h (2 Bft)
17.08.2018 02:20 22,2 C 62 % 1012,0 hPa 0,0 l/m 0,0 km/h (0 Bft) NO 39 0 min 0 W/m 0,0 km/h (0 Bft)
17.08.2018 02:15 22,2 C 61 % 1012,0 hPa 0,0 l/m 0,1 km/h (0 Bft) NO 39 0 min 0 W/m 1,6 km/h (1 Bft)
17.08.2018 02:10 22,2 C 61 % 1011,9 hPa 0,0 l/m 2,7 km/h (1 Bft) NO 39 0 min 0 W/m 6,4 km/h (2 Bft)
17.08.2018 02:05 22,2 C 61 % 1011,9 hPa 0,0 l/m 1,7 km/h (1 Bft) NO 39 0 min 0 W/m 4,8 km/h (1 Bft)
17.08.2018 02:00 22,3 C 61 % 1011,9 hPa 0,0 l/m 0,2 km/h (0 Bft) NO 39 0 min 0 W/m 3,2 km/h (1 Bft)
17.08.2018 01:55 22,3 C 60 % 1011,9 hPa 0,0 l/m 2,8 km/h (1 Bft) NO 39 0 min 0 W/m 6,4 km/h (2 Bft)
17.08.2018 01:50 22,3 C 60 % 1011,9 hPa 0,0 l/m 3,0 km/h (1 Bft) NO 46 0 min 0 W/m 8,0 km/h (2 Bft)
17.08.2018 01:45 22,3 C 60 % 1011,9 hPa 0,0 l/m 2,6 km/h (1 Bft) NO 44 0 min 0 W/m 8,0 km/h (2 Bft)
17.08.2018 01:40 22,3 C 60 % 1012,1 hPa 0,0 l/m 0,3 km/h (0 Bft) NO 44 0 min 0 W/m 1,6 km/h (1 Bft)
17.08.2018 01:35 22,3 C 60 % 1012,1 hPa 0,0 l/m 0,4 km/h (0 Bft) NO 44 0 min 0 W/m 3,2 km/h (1 Bft)
17.08.2018 01:30 22,3 C 60 % 1012,1 hPa 0,0 l/m 2,3 km/h (1 Bft) NO 44 0 min 0 W/m 6,4 km/h (2 Bft)
17.08.2018 01:25 22,4 C 59 % 1012,1 hPa 0,0 l/m 4,9 km/h (1 Bft) NO 44 0 min 0 W/m 8,0 km/h (2 Bft)
17.08.2018 01:20 22,6 C 59 % 1012,1 hPa 0,0 l/m 6,0 km/h (2 Bft) NO 44 0 min 0 W/m 8,0 km/h (2 Bft)
17.08.2018 01:15 22,6 C 58 % 1012,1 hPa 0,0 l/m 5,1 km/h (1 Bft) NO 39 0 min 0 W/m 8,0 km/h (2 Bft)
17.08.2018 01:10 22,6 C 58 % 1012,2 hPa 0,0 l/m 3,2 km/h (1 Bft) NO 38 0 min 0 W/m 6,4 km/h (2 Bft)
17.08.2018 01:05 22,7 C 58 % 1012,2 hPa 0,0 l/m 2,6 km/h (1 Bft) NO 38 0 min 0 W/m 6,4 km/h (2 Bft)
17.08.2018 01:00 22,7 C 58 % 1012,2 hPa 0,0 l/m 6,6 km/h (2 Bft) O-NO 59 0 min 0 W/m 9,7 km/h (2 Bft)
17.08.2018 00:55 22,8 C 58 % 1012,2 hPa 0,0 l/m 7,1 km/h (2 Bft) O-NO 76 0 min 0 W/m 11,3 km/h (2 Bft)
17.08.2018 00:50 22,8 C 57 % 1012,2 hPa 0,0 l/m 7,6 km/h (2 Bft) NO 55 0 min 0 W/m 11,3 km/h (2 Bft)
17.08.2018 00:45 22,8 C 58 % 1012,2 hPa 0,0 l/m 8,1 km/h (2 Bft) N-NO 33 0 min 0 W/m 11,3 km/h (2 Bft)
17.08.2018 00:40 22,9 C 58 % 1012,2 hPa 0,0 l/m 4,1 km/h (1 Bft) NO 39 0 min 0 W/m 8,0 km/h (2 Bft)
17.08.2018 00:35 23,0 C 58 % 1012,2 hPa 0,0 l/m 4,9 km/h (1 Bft) O-NO 65 0 min 0 W/m 8,0 km/h (2 Bft)
17.08.2018 00:30 23,3 C 57 % 1012,2 hPa 0,0 l/m 5,6 km/h (1 Bft) O-NO 65 0 min 0 W/m 8,0 km/h (2 Bft)
17.08.2018 00:25 23,4 C 57 % 1012,1 hPa 0,0 l/m 4,8 km/h (1 Bft) O-NO 65 0 min 0 W/m 8,0 km/h (2 Bft)
17.08.2018 00:20 23,5 C 56 % 1012,1 hPa 0,0 l/m 4,2 km/h (1 Bft) O-NO 58 0 min 0 W/m 8,0 km/h (2 Bft)
17.08.2018 00:15 23,6 C 56 % 1012,1 hPa 0,0 l/m 5,5 km/h (1 Bft) O-NO 59 0 min 0 W/m 11,3 km/h (2 Bft)
17.08.2018 00:10 23,7 C 56 % 1012,1 hPa 0,0 l/m 1,2 km/h (1 Bft) SO 125 0 min 0 W/m 4,8 km/h (1 Bft)
17.08.2018 00:05 23,8 C 55 % 1012,1 hPa 0,0 l/m 1,3 km/h (1 Bft) SO 125 0 min 0 W/m 4,8 km/h (1 Bft)
17.08.2018 00:00 23,8 C 55 % 1012,1 hPa 0,0 l/m 5,8 km/h (2 Bft) SO 143 0 min 0 W/m 9,7 km/h (2 Bft)
_ Min-Zeit 04:00 00:00 02:45 - 02:20 - - - - 02:20
Minimum _ 21,1 C 55 % 1011,8 hPa - 0,0 km/h (0 Bft) - - - - 0,0 km/h (0 Bft)
_ Max-Zeit 00:00 03:35 00:30 00:00 00:45 - - 00:00 00:00 00:15
Maximum _ 23,9 C 67 % 1012,2 hPa 0,0 l/m 8,1 km/h
N-NO (2 Bft)
- - 0 min 0 W/m 11,3 km/h
O (2 Bft)
Durchschnitt _ 22,2 C 61 % 1012,0 hPa #0,0 l/m 2,6 km/h (1 Bft) NO - #0 min. 0 W/m 5,3 km/h (1 Bft)